Time;durP1;ratioP1;P1;durP2;ratioP2;P2;SDS_P1;SDS_P2;PMS_P1;PMS_P2;Temp;Humidity;BMP_temperature;BMP_pressure;BME280_temperature;BME280_humidity;BME280_pressure;Samples;Min_cycle;Max_cycle;Signal;HPM_P1;HPM_P2
2022/11/18 00:02:02;;;;;;;;;;;;;;;14.70;76.69;98613.47;5076487;28;1211;-63
2022/11/18 00:04:27;;;;;;;;;;;;;;;14.71;77.15;98625.31;5076131;28;853;-63
2022/11/18 00:06:52;;;;;;;;;;;;;;;14.71;76.96;98617.03;5075829;28;1046;-63
2022/11/18 00:09:17;;;;;;;;;;;;;;;14.69;76.80;98611.88;5075831;28;1902;-63
2022/11/18 00:14:26;;;;;;;;;;;;;;;14.68;76.75;98613.03;5075963;28;722;-63
2022/11/18 00:16:58;;;;;;;;;;;;;;;14.69;76.86;98622.09;5075713;28;888;-64
2022/11/18 00:19:24;;;;;;;;;;;;;;;14.71;76.42;98626.09;5075857;28;899;-63
2022/11/18 00:21:49;;;;;;;;;;;;;;;14.70;76.88;98623.69;5075892;28;1196;-63
2022/11/18 00:24:15;;;;;;;;;;;;;;;14.70;77.08;98623.69;5075755;28;781;-63
2022/11/18 00:26:40;;;;;;;;;;;;;;;14.70;76.28;98623.69;5075462;28;837;-63
2022/11/18 00:29:05;;;;;;;;;;;;;;;14.69;76.55;98628.41;5075683;28;1886;-63
2022/11/18 00:31:30;;;;;;;;;;;;;;;14.69;76.14;98625.66;5075659;28;1205;-63
2022/11/18 00:33:56;;;;;;;;;;;;;;;14.68;76.53;98643.31;5075688;28;806;-64
2022/11/18 00:36:21;;;;;;;;;;;;;;;14.68;76.84;98646.06;5075154;28;783;-64
2022/11/18 00:38:46;;;;;;;;;;;;;;;14.68;76.21;98653.53;5075497;28;995;-63
2022/11/18 00:41:12;;;;;;;;;;;;;;;14.69;76.18;98653.19;5074983;28;1145;-63
2022/11/18 00:43:37;;;;;;;;;;;;;;;14.69;76.29;98655.13;5075545;28;891;-64
2022/11/18 00:46:03;;;;;;;;;;;;;;;14.69;76.81;98655.13;5075126;28;892;-64
2022/11/18 00:48:29;;;;;;;;;;;;;;;14.68;76.29;98661.78;5075335;28;1890;-63
2022/11/18 00:50:55;;;;;;;;;;;;;;;14.68;76.99;98661.78;5075172;28;1233;-63
2022/11/18 00:53:21;;;;;;;;;;;;;;;14.69;76.83;98657.88;5075358;28;849;-63
2022/11/18 00:55:46;;;;;;;;;;;;;;;14.69;76.39;98657.88;5074913;28;1066;-63
2022/11/18 00:58:13;;;;;;;;;;;;;;;14.68;77.00;98668.09;5075016;28;983;-63
2022/11/18 01:00:42;;;;;;;;;;;;;;;14.68;76.43;98667.31;5075050;28;888;-63
2022/11/18 01:03:07;;;;;;;;;;;;;;;14.66;76.90;98670.41;5074710;28;1876;-63
2022/11/18 01:05:32;;;;;;;;;;;;;;;14.67;76.73;98674.75;5074946;28;995;-63
2022/11/18 01:07:58;;;;;;;;;;;;;;;14.66;76.00;98666.84;5074536;28;1894;-63
2022/11/18 01:10:23;;;;;;;;;;;;;;;14.67;76.04;98671.22;5074810;28;1066;-63
2022/11/18 01:15:36;;;;;;;;;;;;;;;14.68;76.16;98675.56;5074860;28;726;-63
2022/11/18 01:18:02;;;;;;;;;;;;;;;14.67;76.01;98674.75;5074498;28;1169;-63
2022/11/18 01:20:27;;;;;;;;;;;;;;;14.67;75.95;98676.72;5074635;28;943;-63
2022/11/18 01:22:52;;;;;;;;;;;;;;;14.67;76.41;98673.97;5074525;28;1169;-63
2022/11/18 01:25:17;;;;;;;;;;;;;;;14.66;76.04;98675.09;5074521;28;782;-64
2022/11/18 01:27:42;;;;;;;;;;;;;;;14.67;76.76;98684.97;5074268;28;1890;-63
2022/11/18 01:30:07;;;;;;;;;;;;;;;14.67;76.85;98682.22;5074607;28;1039;-63
2022/11/18 01:32:33;;;;;;;;;;;;;;;14.65;77.00;98673.50;5074356;28;1171;-63
2022/11/18 01:34:58;;;;;;;;;;;;;;;14.66;76.03;98677.88;5074342;28;908;-63
2022/11/18 01:37:23;;;;;;;;;;;;;;;14.67;76.65;98679.47;5074101;28;1078;-63
2022/11/18 01:39:48;;;;;;;;;;;;;;;14.67;76.93;98691.28;5074213;28;1059;-63
2022/11/18 01:42:15;;;;;;;;;;;;;;;14.67;77.00;98685.78;5074212;28;1196;-63
2022/11/18 01:44:59;;;;;;;;;;;;;;;14.66;75.93;98684.19;5074206;28;866;-63
2022/11/18 01:47:29;;;;;;;;;;;;;;;14.66;76.17;98686.13;5073861;28;852;-63
2022/11/18 01:49:55;;;;;;;;;;;;;;;14.68;75.88;98686.59;5074057;28;1956;-63
2022/11/18 01:52:21;;;;;;;;;;;;;;;14.65;77.14;98688.06;5073110;28;1203;-63
2022/11/18 01:54:50;;;;;;;;;;;;;;;14.65;76.98;98688.06;5073956;28;908;-63
2022/11/18 01:57:19;;;;;;;;;;;;;;;14.65;76.52;98690.03;5073763;28;832;-63
2022/11/18 01:59:46;;;;;;;;;;;;;;;14.64;76.50;98694.72;5073839;28;920;-63
2022/11/18 02:02:12;;;;;;;;;;;;;;;14.65;76.78;98693.59;5073888;28;1216;-63
2022/11/18 02:04:39;;;;;;;;;;;;;;;14.65;76.83;98695.53;5074030;28;873;-63
2022/11/18 02:07:05;;;;;;;;;;;;;;;14.65;76.23;98687.28;5073521;28;1067;-63
2022/11/18 02:09:30;;;;;;;;;;;;;;;14.66;76.86;98697.13;5073668;28;1967;-64
2022/11/18 02:11:56;;;;;;;;;;;;;;;14.64;75.88;98694.72;5073590;28;1224;-63
2022/11/18 02:14:23;;;;;;;;;;;;;;;14.64;76.00;98694.72;5073603;28;821;-63
2022/11/18 02:17:07;;;;;;;;;;;;;;;14.65;75.82;98706.56;5073342;28;987;-63
2022/11/18 02:19:35;;;;;;;;;;;;;;;14.64;76.40;98704.94;5073552;28;968;-63
2022/11/18 02:22:06;;;;;;;;;;;;;;;14.64;76.03;98713.19;5073441;28;1130;-63
2022/11/18 02:24:49;;;;;;;;;;;;;;;14.63;76.03;98712.41;5073449;28;983;-64
2022/11/18 02:27:14;;;;;;;;;;;;;;;14.65;76.33;98709.31;5073203;28;1019;-63
2022/11/18 02:29:42;;;;;;;;;;;;;;;14.65;75.66;98717.56;5073263;28;1890;-63
2022/11/18 02:32:20;;;;;;;;;;;;;;;14.63;76.28;98715.16;5073331;28;1190;-63
2022/11/18 02:34:53;;;;;;;;;;;;;;;14.63;75.82;98709.66;5073404;28;963;-63
2022/11/18 02:37:26;;;;;;;;;;;;;;;14.63;76.66;98712.41;5072990;28;983;-63
2022/11/18 02:40:00;;;;;;;;;;;;;;;14.64;75.82;98719.50;5073339;28;1090;-64
2022/11/18 02:42:26;;;;;;;;;;;;;;;14.64;76.45;98716.75;5073285;28;1290;-64
2022/11/18 02:44:54;;;;;;;;;;;;;;;14.64;76.16;98715.97;5073346;28;932;-64
2022/11/18 02:47:20;;;;;;;;;;;;;;;14.63;76.42;98719.88;5073054;28;813;-64
2022/11/18 02:49:51;;;;;;;;;;;;;;;14.64;76.43;98718.72;5073098;28;1921;-63
2022/11/18 02:52:17;;;;;;;;;;;;;;;14.63;76.00;98725.41;5073240;28;1432;-64
2022/11/18 02:54:44;;;;;;;;;;;;;;;14.63;76.67;98726.16;5073411;28;882;-63
2022/11/18 02:57:11;;;;;;;;;;;;;;;14.62;76.49;98732.84;5072886;28;1048;-64
2022/11/18 02:59:36;;;;;;;;;;;;;;;14.62;76.56;98732.06;5073213;28;1078;-63
2022/11/18 03:02:03;;;;;;;;;;;;;;;14.63;75.90;98728.16;5072986;28;1212;-63
2022/11/18 03:04:29;;;;;;;;;;;;;;;14.63;76.37;98734.44;5076272;28;901;-63
2022/11/18 03:07:06;;;;;;;;;;;;;;;14.62;75.78;98734.81;5077094;28;813;-63
2022/11/18 03:09:37;;;;;;;;;;;;;;;14.64;76.62;98732.47;5075936;28;1901;-63
2022/11/18 03:12:17;;;;;;;;;;;;;;;14.61;76.69;98736.75;5077079;28;1292;-63
2022/11/18 03:14:42;;;;;;;;;;;;;;;14.62;76.54;98737.56;5077070;28;1046;-63
2022/11/18 03:17:15;;;;;;;;;;;;;;;14.60;76.32;98735.16;5076959;28;841;-63
2022/11/18 03:19:55;;;;;;;;;;;;;;;14.60;75.99;98740.66;5076994;28;1066;-63
2022/11/18 03:22:25;;;;;;;;;;;;;;;14.62;76.51;98735.59;5076727;28;1203;-64
2022/11/18 03:24:55;;;;;;;;;;;;;;;14.61;76.31;98741.47;5076910;28;1057;-64
2022/11/18 03:27:25;;;;;;;;;;;;;;;14.62;75.90;98740.31;5076905;28;817;-64
2022/11/18 03:29:55;;;;;;;;;;;;;;;14.62;76.64;98741.13;5076862;28;1952;-64
2022/11/18 03:32:24;;;;;;;;;;;;;;;14.62;76.17;98743.06;5076835;28;1280;-64
2022/11/18 03:34:51;;;;;;;;;;;;;;;14.62;75.68;98741.13;5076730;28;821;-64
2022/11/18 03:37:18;;;;;;;;;;;;;;;14.59;76.67;98747.31;5076437;28;1042;-64
2022/11/18 03:39:47;;;;;;;;;;;;;;;14.58;76.36;98748.47;5076629;28;999;-64
2022/11/18 03:42:38;;;;;;;;;;;;;;;14.61;76.76;98738.72;5076528;28;1210;-64
2022/11/18 03:45:11;;;;;;;;;;;;;;;14.59;76.58;98747.31;5073338;28;1173;-64
2022/11/18 03:47:40;;;;;;;;;;;;;;;14.61;76.41;98757.97;5075783;28;1015;-64
2022/11/18 03:50:14;;;;;;;;;;;;;;;14.61;76.68;98761.53;5076392;28;1961;-64
2022/11/18 03:52:40;;;;;;;;;;;;;;;14.61;76.89;98760.72;5076425;28;1296;-64
2022/11/18 03:55:11;;;;;;;;;;;;;;;14.60;76.53;98751.66;5076409;28;881;-64
2022/11/18 03:57:41;;;;;;;;;;;;;;;14.58;75.80;98762.22;5076017;28;821;-64
2022/11/18 04:00:07;;;;;;;;;;;;;;;14.59;76.63;98757.53;5076137;28;1007;-64
2022/11/18 04:02:33;;;;;;;;;;;;;;;14.61;75.80;98755.22;5075829;28;1750;-64
2022/11/18 04:04:59;;;;;;;;;;;;;;;14.60;76.29;98757.19;5076065;28;1064;-64
2022/11/18 04:07:32;;;;;;;;;;;;;;;14.60;75.62;98762.69;5075836;28;1070;-64
2022/11/18 04:10:01;;;;;;;;;;;;;;;14.60;76.46;98759.94;5076004;28;1897;-64
2022/11/18 04:12:29;;;;;;;;;;;;;;;14.60;76.58;98759.94;5075908;28;1209;-64
2022/11/18 04:14:55;;;;;;;;;;;;;;;14.60;76.16;98773.69;5075278;28;785;-64
2022/11/18 04:17:21;;;;;;;;;;;;;;;14.60;75.62;98770.94;5075723;28;884;-64
2022/11/18 04:19:46;;;;;;;;;;;;;;;14.61;76.66;98780.00;5075953;28;769;-64
2022/11/18 04:22:12;;;;;;;;;;;;;;;14.61;75.54;98777.25;5075774;28;1207;-64
2022/11/18 04:24:37;;;;;;;;;;;;;;;14.60;76.56;98781.16;5075901;28;874;-64
2022/11/18 04:27:03;;;;;;;;;;;;;;;14.59;75.64;98777.59;5075487;28;1002;-64
2022/11/18 04:29:28;;;;;;;;;;;;;;;14.58;75.72;98777.94;5075906;28;1964;-64
2022/11/18 04:31:54;;;;;;;;;;;;;;;14.58;76.63;98778.75;5075701;28;1181;-64
2022/11/18 04:34:19;;;;;;;;;;;;;;;14.58;76.01;98784.25;5075603;28;959;-64
2022/11/18 04:36:44;;;;;;;;;;;;;;;14.60;76.03;98787.47;5075482;28;858;-64
2022/11/18 04:39:09;;;;;;;;;;;;;;;14.60;75.91;98790.22;5075518;28;1050;-63
2022/11/18 04:44:18;;;;;;;;;;;;;;;14.59;76.42;98796.06;5075482;28;710;-63
2022/11/18 04:46:44;;;;;;;;;;;;;;;14.58;75.56;98800.78;5075105;28;735;-63
2022/11/18 04:49:10;;;;;;;;;;;;;;;14.58;76.53;98795.25;5075221;28;1898;-63
2022/11/18 04:51:35;;;;;;;;;;;;;;;14.59;75.45;98807.88;5075300;28;1307;-63
2022/11/18 04:54:01;;;;;;;;;;;;;;;14.58;75.85;98809.03;5075211;28;842;-63
2022/11/18 04:56:26;;;;;;;;;;;;;;;14.60;75.56;98817.75;5074987;28;810;-63
2022/11/18 04:58:51;;;;;;;;;;;;;;;14.59;76.26;98813.41;5075280;28;854;-64
2022/11/18 05:01:16;;;;;;;;;;;;;;;14.58;76.42;98817.28;5074970;28;1306;-63
2022/11/18 05:03:41;;;;;;;;;;;;;;;14.59;76.45;98823.59;5075052;28;1042;-63
2022/11/18 05:06:06;;;;;;;;;;;;;;;14.59;76.07;98829.13;5074966;28;796;-63
2022/11/18 05:08:32;;;;;;;;;;;;;;;14.58;75.71;98822.00;5074884;28;1957;-64
2022/11/18 05:12:47;;;;;;;;;;;;;;;14.58;76.44;98836.56;5074850;28;1388;-64
2022/11/18 05:13:42;;;;;;;;;;;;;;;14.57;75.90;98831.41;5074730;28;1498;-64
2022/11/18 05:16:07;;;;;;;;;;;;;;;14.58;75.86;98835.75;5074286;28;879;-64
2022/11/18 05:18:32;;;;;;;;;;;;;;;14.58;76.27;98833.00;5074663;28;1031;-64
2022/11/18 05:20:57;;;;;;;;;;;;;;;14.61;76.79;98830.38;5074638;28;1199;-64
2022/11/18 05:23:22;;;;;;;;;;;;;;;14.61;75.70;98835.88;5074691;28;983;-64
2022/11/18 05:25:47;;;;;;;;;;;;;;;14.64;76.71;98840.69;5074437;28;835;-64
2022/11/18 05:28:13;;;;;;;;;;;;;;;14.67;75.81;98841.94;5074550;28;1956;-63
2022/11/18 05:30:38;;;;;;;;;;;;;;;14.68;76.15;98844.34;5074645;28;805;-62
2022/11/18 05:33:03;;;;;;;;;;;;;;;14.71;76.56;98842.88;5074388;28;1256;-63
2022/11/18 05:35:28;;;;;;;;;;;;;;;14.74;76.55;98842.94;5074504;28;995;-63
2022/11/18 05:37:53;;;;;;;;;;;;;;;14.76;75.70;98846.16;5073655;28;793;-62
2022/11/18 05:40:18;;;;;;;;;;;;;;;14.79;75.83;98844.69;5074366;28;951;-63
2022/11/18 05:45:27;;;;;;;;;;;;;;;14.83;76.39;98847.53;5074308;28;755;-63
2022/11/18 05:47:58;;;;;;;;;;;;;;;14.86;76.08;98849.59;5073833;28;2010;-63
2022/11/18 05:50:23;;;;;;;;;;;;;;;14.87;76.69;98851.19;5074082;28;924;-62
2022/11/18 05:52:49;;;;;;;;;;;;;;;14.89;76.01;98854.38;5073945;28;1287;-63
2022/11/18 05:55:16;;;;;;;;;;;;;;;14.89;76.10;98857.94;5073646;28;1103;-63
2022/11/18 05:57:41;;;;;;;;;;;;;;;14.92;76.04;98859.22;5073602;28;900;-63
2022/11/18 06:00:06;;;;;;;;;;;;;;;14.92;76.58;98856.44;5073163;28;924;-63
2022/11/18 06:02:31;;;;;;;;;;;;;;;14.93;76.35;98855.31;5073614;28;1215;-63
2022/11/18 06:04:58;;;;;;;;;;;;;;;14.93;76.38;98860.81;5073756;28;865;-63
2022/11/18 06:07:26;;;;;;;;;;;;;;;14.95;76.90;98864.03;5073543;28;944;-63
2022/11/18 06:09:55;;;;;;;;;;;;;;;14.94;76.82;98873.44;5073656;28;1945;-63
2022/11/18 06:12:21;;;;;;;;;;;;;;;14.95;76.67;98875.06;5073693;28;1298;-62
2022/11/18 06:14:53;;;;;;;;;;;;;;;14.96;76.42;98882.16;5073634;28;738;-63
2022/11/18 06:17:25;;;;;;;;;;;;;;;14.96;76.45;98882.97;5073314;28;963;-63
2022/11/18 06:19:51;;;;;;;;;;;;;;;14.96;76.26;98879.41;5073618;28;829;-63
2022/11/18 06:22:16;;;;;;;;;;;;;;;14.96;76.48;98882.16;5073495;28;1580;-63
2022/11/18 06:24:42;;;;;;;;;;;;;;;14.96;77.09;98882.97;5073508;28;1043;-62
2022/11/18 06:27:07;;;;;;;;;;;;;;;14.95;76.39;98892.38;5073265;28;802;-63
2022/11/18 06:29:32;;;;;;;;;;;;;;;14.96;76.96;98882.16;5073436;28;1951;-63
2022/11/18 06:31:57;;;;;;;;;;;;;;;14.96;76.69;98884.91;5073402;28;1205;-63
2022/11/18 06:34:22;;;;;;;;;;;;;;;14.96;77.34;98894.00;5073358;28;1245;-63
2022/11/18 06:36:47;;;;;;;;;;;;;;;14.96;77.17;98887.69;5073114;28;801;-62
2022/11/18 06:39:12;;;;;;;;;;;;;;;14.96;76.81;98896.75;5072882;28;1026;-63
2022/11/18 06:41:38;;;;;;;;;;;;;;;14.96;76.62;98899.50;5101300;22;2108;-65
2022/11/18 06:44:03;;;;;;;;;;;;;;;14.95;76.66;98900.66;5073234;28;895;-65
2022/11/18 06:49:12;;;;;;;;;;;;;;;14.95;76.46;98910.88;5093450;28;1909;-64
2022/11/18 06:51:38;;;;;;;;;;;;;;;14.95;76.63;98911.66;5093387;28;1315;-65
2022/11/18 06:54:03;;;;;;;;;;;;;;;14.95;76.56;98919.94;5093268;28;867;-65
2022/11/18 06:56:28;;;;;;;;;;;;;;;14.95;76.91;98925.44;5093280;28;868;-64
2022/11/18 06:58:54;;;;;;;;;;;;;;;14.95;77.04;98927.41;5093537;28;1038;-65
2022/11/18 07:01:21;;;;;;;;;;;;;;;14.94;77.13;98931.28;5093290;28;1192;-65
2022/11/18 07:03:47;;;;;;;;;;;;;;;14.94;77.47;98942.31;5093351;28;1058;-65
2022/11/18 07:06:13;;;;;;;;;;;;;;;14.95;76.76;98943.94;5092772;28;784;-65
2022/11/18 07:08:39;;;;;;;;;;;;;;;14.94;76.89;98953.34;5093164;28;1894;-65
2022/11/18 07:11:05;;;;;;;;;;;;;;;14.93;77.14;98958.03;5093151;28;1282;-64
2022/11/18 07:13:31;;;;;;;;;;;;;;;14.93;76.78;98958.03;5093261;28;911;-65
2022/11/18 07:16:00;;;;;;;;;;;;;;;14.92;76.91;98959.19;5092787;28;808;-65
2022/11/18 07:18:25;;;;;;;;;;;;;;;14.93;76.62;98962.75;5093155;28;924;-65
2022/11/18 07:20:50;;;;;;;;;;;;;;;14.92;76.82;98963.91;5093091;28;1287;-65
2022/11/18 07:23:16;;;;;;;;;;;;;;;14.93;76.69;98969.06;5093155;28;686;-65
2022/11/18 07:25:41;;;;;;;;;;;;;;;14.95;76.84;98974.22;5093127;28;951;-65
2022/11/18 07:28:06;;;;;;;;;;;;;;;14.93;77.00;98974.56;5092741;28;1897;-65
2022/11/18 07:30:31;;;;;;;;;;;;;;;14.93;76.80;98982.84;5092980;28;982;-65
2022/11/18 07:32:56;;;;;;;;;;;;;;;14.94;77.37;98986.41;5092982;28;1266;-65
2022/11/18 07:35:21;;;;;;;;;;;;;;;14.96;77.38;98981.34;5093010;28;1015;-65
2022/11/18 07:37:47;;;;;;;;;;;;;;;14.96;77.27;98986.88;5074704;28;1389;-65
2022/11/18 07:40:12;;;;;;;;;;;;;;;14.97;77.21;98991.22;5092998;28;1030;-65
2022/11/18 07:42:43;;;;;;;;;;;;;;;14.98;77.22;98990.06;5092763;28;1291;-65
2022/11/18 07:45:09;;;;;;;;;;;;;;;14.99;77.14;98995.22;5092851;28;908;-65
2022/11/18 07:47:34;;;;;;;;;;;;;;;15.00;76.69;98998.78;5092623;28;820;-65
2022/11/18 07:49:59;;;;;;;;;;;;;;;15.00;76.88;99001.53;5093572;28;1961;-64
2022/11/18 07:52:25;;;;;;;;;;;;;;;15.01;77.28;99003.94;5096728;28;1184;-65
2022/11/18 07:54:50;;;;;;;;;;;;;;;15.01;76.89;99012.22;5096627;28;888;-65
2022/11/18 07:57:15;;;;;;;;;;;;;;;15.01;76.38;99012.22;5096348;28;986;-65
2022/11/18 07:59:40;;;;;;;;;;;;;;;15.01;77.17;99006.72;5096430;28;860;-64
2022/11/18 08:02:05;;;;;;;;;;;;;;;15.03;77.23;99014.63;5078466;28;1287;-65
2022/11/18 08:04:30;;;;;;;;;;;;;;;15.03;76.71;99014.63;5096677;28;848;-64
2022/11/18 08:06:55;;;;;;;;;;;;;;;15.04;77.40;99021.75;5096217;28;951;-64
2022/11/18 08:09:21;;;;;;;;;;;;;;;15.04;76.68;99022.56;5096300;28;1953;-65
2022/11/18 08:11:46;;;;;;;;;;;;;;;15.04;77.24;99017.06;5096302;28;1258;-65
2022/11/18 08:14:11;;;;;;;;;;;;;;;15.03;76.56;99023.72;5096121;28;979;-65
2022/11/18 08:16:36;;;;;;;;;;;;;;;15.03;76.68;99023.72;5096032;28;872;-65
2022/11/18 08:19:01;;;;;;;;;;;;;;;15.04;76.98;99024.50;5096107;28;1043;-65
2022/11/18 08:21:27;;;;;;;;;;;;;;;15.04;76.71;99021.75;5096102;28;1217;-65
2022/11/18 08:23:53;;;;;;;;;;;;;;;15.04;77.18;99032.78;5096072;28;983;-64
2022/11/18 08:26:18;;;;;;;;;;;;;;;15.04;77.24;99030.03;5095868;28;860;-65
2022/11/18 08:28:44;;;;;;;;;;;;;;;15.03;76.65;99037.50;5077726;28;1945;-65
2022/11/18 08:31:10;;;;;;;;;;;;;;;15.03;77.11;99043.00;5095826;28;1276;-65
2022/11/18 08:33:35;;;;;;;;;;;;;;;15.03;76.57;99044.94;5095879;28;840;-65
2022/11/18 08:36:17;;;;;;;;;;;;;;;15.03;76.68;99042.19;5095694;28;886;-64
2022/11/18 08:38:42;;;;;;;;;;;;;;;15.02;77.09;99040.56;5095767;28;1225;-65
2022/11/18 08:41:28;;;;;;;;;;;;;;;15.02;76.97;99041.38;5095500;28;1330;-65
2022/11/18 08:43:53;;;;;;;;;;;;;;;15.03;77.19;99050.47;5088179;28;1200;-64
2022/11/18 08:46:18;;;;;;;;;;;;;;;15.02;77.13;99057.91;5095392;28;1186;-65
2022/11/18 08:48:44;;;;;;;;;;;;;;;15.01;77.03;99053.56;5095566;28;1956;-65
2022/11/18 08:51:10;;;;;;;;;;;;;;;15.02;77.27;99051.59;5095542;28;1228;-64
2022/11/18 08:53:35;;;;;;;;;;;;;;;15.03;76.56;99059.53;5095533;28;1061;-65
2022/11/18 08:56:00;;;;;;;;;;;;;;;15.02;76.57;99065.38;5095121;28;752;-65
2022/11/18 08:58:25;;;;;;;;;;;;;;;15.01;77.48;99063.78;5095440;28;943;-65
2022/11/18 09:00:51;;;;;;;;;;;;;;;15.02;77.03;99062.63;5095235;28;1204;-65
2022/11/18 09:03:16;;;;;;;;;;;;;;;15.01;76.71;99066.53;5095309;28;980;-65
2022/11/18 09:05:41;;;;;;;;;;;;;;;15.02;77.16;99065.38;5077205;28;1223;-65
2022/11/18 09:08:06;;;;;;;;;;;;;;;15.02;76.92;99068.94;5094976;28;1893;-65
2022/11/18 09:10:33;;;;;;;;;;;;;;;15.03;77.31;99078.81;5095164;28;943;-64
2022/11/18 09:12:58;;;;;;;;;;;;;;;15.03;77.16;99084.31;5095068;28;1200;-65
2022/11/18 09:15:25;;;;;;;;;;;;;;;15.03;77.09;99080.78;5095129;28;1023;-65
2022/11/18 09:17:50;;;;;;;;;;;;;;;15.04;76.44;99082.38;5076646;28;1266;-65
2022/11/18 09:20:16;;;;;;;;;;;;;;;15.05;76.97;99087.56;5095030;28;840;-65
2022/11/18 09:22:41;;;;;;;;;;;;;;;15.06;77.05;99088.31;5094857;28;1177;-65
2022/11/18 09:25:06;;;;;;;;;;;;;;;15.06;76.54;99091.88;5094808;28;892;-64
2022/11/18 09:27:31;;;;;;;;;;;;;;;15.06;77.30;99094.66;5094586;28;919;-65
2022/11/18 09:29:56;;;;;;;;;;;;;;;15.07;76.86;99098.22;5094759;28;1963;-65
2022/11/18 09:32:22;;;;;;;;;;;;;;;15.08;77.38;99097.06;5095004;28;1184;-64
2022/11/18 09:34:47;;;;;;;;;;;;;;;15.09;76.86;99104.19;5094725;28;835;-65
2022/11/18 09:37:12;;;;;;;;;;;;;;;15.09;76.99;99101.44;5094400;28;1050;-65
2022/11/18 09:39:37;;;;;;;;;;;;;;;15.11;76.57;99104.66;5094582;28;805;-65
2022/11/18 09:42:21;;;;;;;;;;;;;;;15.10;76.95;99111.31;5094340;28;1196;-64
2022/11/18 09:44:54;;;;;;;;;;;;;;;15.10;76.57;99119.56;5094445;28;995;-64
2022/11/18 09:47:24;;;;;;;;;;;;;;;15.09;76.66;99117.97;5093898;28;797;-65
2022/11/18 09:49:49;;;;;;;;;;;;;;;15.09;76.79;99117.97;5094350;28;1897;-65
2022/11/18 09:52:17;;;;;;;;;;;;;;;15.10;77.10;99119.56;5094265;28;1300;-65
2022/11/18 09:54:42;;;;;;;;;;;;;;;15.09;76.54;99123.47;5094242;28;1262;-64
2022/11/18 09:57:13;;;;;;;;;;;;;;;15.08;76.67;99130.13;5093933;28;931;-65
2022/11/18 09:59:39;;;;;;;;;;;;;;;15.08;77.10;99128.19;5094335;28;820;-65
2022/11/18 10:02:22;;;;;;;;;;;;;;;15.09;76.70;99134.50;5094135;28;1165;-65
2022/11/18 10:04:47;;;;;;;;;;;;;;;15.09;76.73;99131.75;5094236;28;821;-65
2022/11/18 10:07:20;;;;;;;;;;;;;;;15.08;77.01;99136.44;5093920;28;1039;-64
2022/11/18 10:09:47;;;;;;;;;;;;;;;15.08;77.10;99141.16;5094364;28;1976;-65
2022/11/18 10:12:12;;;;;;;;;;;;;;;15.07;76.98;99143.09;5093582;28;1212;-65
2022/11/18 10:14:50;;;;;;;;;;;;;;;15.08;77.17;99149.41;5093692;28;844;-64
2022/11/18 10:17:31;;;;;;;;;;;;;;;15.07;76.78;99147.81;5093634;28;904;-64
2022/11/18 10:20:15;;;;;;;;;;;;;;;15.07;76.43;99145.06;5094176;28;987;-64
2022/11/18 10:22:40;;;;;;;;;;;;;;;15.07;76.49;99156.06;5093800;28;1197;-65
2022/11/18 10:25:11;;;;;;;;;;;;;;;15.06;76.92;99146.19;5093846;28;876;-65
2022/11/18 10:27:37;;;;;;;;;;;;;;;15.06;77.00;99154.47;5093436;28;828;-65
2022/11/18 10:30:22;;;;;;;;;;;;;;;15.06;77.13;99157.22;5093703;28;1978;-65
2022/11/18 10:32:56;;;;;;;;;;;;;;;15.04;77.07;99160.34;5093654;28;1210;-64
2022/11/18 10:35:42;;;;;;;;;;;;;;;15.05;76.49;99172.19;5093726;28;812;-65
2022/11/18 10:38:13;;;;;;;;;;;;;;;15.05;76.87;99158.41;5093045;28;1040;-64
2022/11/18 10:40:56;;;;;;;;;;;;;;;15.05;76.40;99178.50;5093529;28;911;-65
2022/11/18 10:43:40;;;;;;;;;;;;;;;15.05;76.78;99172.97;5093607;28;908;-65
2022/11/18 10:46:24;;;;;;;;;;;;;;;15.05;76.62;99175.75;5075097;28;1278;-65
2022/11/18 10:49:05;;;;;;;;;;;;;;;15.05;76.31;99177.69;5093386;28;1961;-64
2022/11/18 10:51:30;;;;;;;;;;;;;;;15.06;76.43;99173.75;5093404;28;1220;-64
2022/11/18 10:54:06;;;;;;;;;;;;;;;15.06;76.29;99188.34;5093522;28;1073;-65
2022/11/18 10:56:43;;;;;;;;;;;;;;;15.08;76.51;99179.75;5093102;28;1010;-64
2022/11/18 10:59:16;;;;;;;;;;;;;;;15.07;77.27;99187.19;5093400;28;1063;-65
2022/11/18 11:01:41;;;;;;;;;;;;;;;15.09;76.53;99184.09;5093339;28;1322;-65
2022/11/18 11:04:21;;;;;;;;;;;;;;;15.10;76.56;99180.22;5093376;28;800;-64
2022/11/18 11:06:46;;;;;;;;;;;;;;;15.10;77.19;99180.22;5093056;28;1006;-65
2022/11/18 11:09:14;;;;;;;;;;;;;;;15.11;76.87;99182.63;5093041;28;1957;-65
2022/11/18 11:11:42;;;;;;;;;;;;;;;15.11;76.51;99185.38;5093111;28;1201;-65
2022/11/18 11:14:16;;;;;;;;;;;;;;;15.11;76.52;99184.56;5093220;28;825;-64
2022/11/18 11:16:45;;;;;;;;;;;;;;;15.10;76.95;99181.00;5074827;28;1260;-65
2022/11/18 11:19:12;;;;;;;;;;;;;;;15.10;76.91;99183.78;5093230;28;812;-65
2022/11/18 11:21:37;;;;;;;;;;;;;;;15.11;76.37;99187.34;5092997;28;1208;-65
2022/11/18 11:24:07;;;;;;;;;;;;;;;15.12;76.35;99191.69;5094126;28;933;-65
2022/11/18 11:26:37;;;;;;;;;;;;;;;15.11;76.48;99193.66;5096884;28;1211;-64
2022/11/18 11:29:27;;;;;;;;;;;;;;;15.12;76.59;99198.03;5078896;28;1903;-65
2022/11/18 11:32:19;;;;;;;;;;;;;;;15.10;76.42;99208.56;5097107;28;1180;-64
2022/11/18 11:34:58;;;;;;;;;;;;;;;15.10;76.71;99207.78;5080911;28;1190;-65
2022/11/18 11:37:35;;;;;;;;;;;;;;;15.09;76.62;99217.19;5096766;28;943;-64
2022/11/18 11:40:06;;;;;;;;;;;;;;;15.10;77.12;99221.53;5096947;28;982;-65
2022/11/18 11:42:48;;;;;;;;;;;;;;;15.08;76.63;99224.63;5096687;28;1196;-65
2022/11/18 11:45:18;;;;;;;;;;;;;;;15.08;76.98;99227.41;5097050;28;983;-65
2022/11/18 11:47:55;;;;;;;;;;;;;;;15.09;76.55;99236.47;5096570;28;904;-64
2022/11/18 11:50:20;;;;;;;;;;;;;;;15.09;76.40;99236.47;5096670;28;1957;-64
2022/11/18 11:52:49;;;;;;;;;;;;;;;15.09;76.89;99234.53;5096452;28;1209;-64
2022/11/18 11:55:22;;;;;;;;;;;;;;;15.09;76.56;99233.72;5095299;28;1636;-64
2022/11/18 11:58:02;;;;;;;;;;;;;;;15.08;76.94;99241.19;5074447;28;1690;-64
2022/11/18 12:00:28;;;;;;;;;;;;;;;15.09;76.45;99239.22;5076025;28;906;-64
2022/11/18 12:03:17;;;;;;;;;;;;;;;15.08;76.91;99248.63;5076122;28;1191;-65
2022/11/18 12:05:43;;;;;;;;;;;;;;;15.08;76.58;99243.94;5084777;28;1332;-65
2022/11/18 12:08:12;;;;;;;;;;;;;;;15.07;76.33;99255.28;5096189;28;1893;-65
2022/11/18 12:10:37;;;;;;;;;;;;;;;15.06;76.38;99248.97;5095811;28;1560;-65
2022/11/18 12:13:21;;;;;;;;;;;;;;;15.06;77.01;99246.22;5096226;28;1216;-64
2022/11/18 12:15:52;;;;;;;;;;;;;;;15.06;76.29;99253.69;5096022;28;991;-64
2022/11/18 12:18:23;;;;;;;;;;;;;;;15.04;76.41;99254.03;5096271;28;813;-65
2022/11/18 12:20:52;;;;;;;;;;;;;;;15.04;76.65;99250.47;5077922;28;1233;-65
2022/11/18 12:23:19;;;;;;;;;;;;;;;15.05;76.29;99255.66;5096016;28;848;-65
2022/11/18 12:25:47;;;;;;;;;;;;;;;15.05;76.94;99257.59;5095270;28;1726;-65
2022/11/18 12:28:29;;;;;;;;;;;;;;;15.06;76.83;99261.94;5095776;28;2015;-64
2022/11/18 12:31:13;;;;;;;;;;;;;;;15.05;76.29;99263.94;5077718;28;1220;-64
2022/11/18 12:33:42;;;;;;;;;;;;;;;15.06;76.16;99271.03;5095694;28;1047;-65
2022/11/18 12:36:08;;;;;;;;;;;;;;;15.07;76.40;99275.38;5094902;28;995;-64
2022/11/18 12:38:33;;;;;;;;;;;;;;;15.07;76.80;99278.16;5095713;28;836;-65
2022/11/18 12:43:45;;;;;;;;;;;;;;;15.08;76.83;99284.47;5095370;28;1359;-64
2022/11/18 12:43:47;;;;;;;;;;;;;;;15.08;76.44;99285.28;5095863;28;1103;-64
2022/11/18 12:46:31;;;;;;;;;;;;;;;15.09;76.61;99286.88;5095402;28;824;-64
2022/11/18 12:48:56;;;;;;;;;;;;;;;15.10;76.10;99287.69;5095575;28;1909;-65
2022/11/18 12:51:23;;;;;;;;;;;;;;;15.10;76.33;99284.94;5095339;28;1221;-64
2022/11/18 12:53:49;;;;;;;;;;;;;;;15.10;76.98;99285.75;5095583;28;840;-65
2022/11/18 12:56:17;;;;;;;;;;;;;;;15.11;76.51;99283.78;5095167;28;1061;-64
2022/11/18 12:58:45;;;;;;;;;;;;;;;15.11;76.19;99283.78;5095548;28;829;-65
2022/11/18 13:01:11;;;;;;;;;;;;;;;15.10;76.55;99295.97;5095359;28;1204;-64
2022/11/18 13:03:37;;;;;;;;;;;;;;;15.11;76.33;99298.38;5095260;28;765;-64
2022/11/18 13:06:11;;;;;;;;;;;;;;;15.11;76.40;99303.09;5076833;28;943;-65
2022/11/18 13:08:37;;;;;;;;;;;;;;;15.09;76.70;99303.41;5095022;28;2005;-64
2022/11/18 13:19:28;;;;;;;;;;;;;;;15.08;76.18;99303.75;5094951;28;685;-64
2022/11/18 13:24:42;;;;;;;;;;;;;;;15.08;76.48;99309.28;5095100;28;717;-65
2022/11/18 13:27:16;;;;;;;;;;;;;;;15.08;76.88;99303.75;5094722;28;995;-63
2022/11/18 13:29:46;;;;;;;;;;;;;;;15.07;76.20;99310.41;5094690;28;1890;-65
2022/11/18 13:32:19;;;;;;;;;;;;;;;15.06;76.17;99306.84;5094757;28;1208;-64
2022/11/18 13:34:49;;;;;;;;;;;;;;;15.08;76.57;99320.28;5094696;28;860;-65